createdAt,value
2018-09-24T00:00:40.413Z,3.90
2018-09-24T00:03:16.206Z,4.37
2018-09-24T00:05:52.108Z,4.10
2018-09-24T00:08:28.089Z,4.17
2018-09-24T00:11:04.160Z,4.10
2018-09-24T00:13:40.071Z,4.23
2018-09-24T00:16:15.902Z,4.27
2018-09-24T00:18:51.799Z,4.47
2018-09-24T00:21:27.823Z,4.77
2018-09-24T00:24:03.835Z,4.33
2018-09-24T00:26:39.739Z,4.70
2018-09-24T00:29:15.595Z,4.30
2018-09-24T00:31:51.473Z,4.03
2018-09-24T00:34:27.457Z,4.60
2018-09-24T00:37:03.245Z,4.27
2018-09-24T00:39:39.062Z,4.17
2018-09-24T00:42:14.933Z,4.17
2018-09-24T00:44:50.853Z,3.80
2018-09-24T00:47:26.917Z,3.50
2018-09-24T00:50:02.719Z,3.60
2018-09-24T00:52:38.692Z,3.70
2018-09-24T00:55:14.647Z,2.93
2018-09-24T00:57:50.440Z,3.50
2018-09-24T01:00:26.435Z,3.10
2018-09-24T01:03:02.232Z,2.90
2018-09-24T01:05:38.246Z,2.70
2018-09-24T01:08:14.186Z,2.80
2018-09-24T01:10:50.178Z,3.40
2018-09-24T01:13:26.143Z,3.33
2018-09-24T01:16:02.504Z,2.80
2018-09-24T01:18:38.482Z,3.20
2018-09-24T01:21:14.239Z,2.97
2018-09-24T01:23:50.076Z,2.67
2018-09-24T01:26:26.051Z,2.57
2018-09-24T01:29:02.014Z,3.00
2018-09-24T01:31:37.881Z,3.10
2018-09-24T01:34:13.798Z,3.60
2018-09-24T01:36:49.558Z,3.90
2018-09-24T01:39:25.627Z,3.53
2018-09-24T01:42:01.453Z,4.30
2018-09-24T01:44:37.350Z,4.07
2018-09-24T01:47:13.250Z,4.27
2018-09-24T01:49:49.170Z,4.53
2018-09-24T01:52:25.102Z,4.67
2018-09-24T01:55:01.095Z,4.43
2018-09-24T01:57:43.238Z,4.30
2018-09-24T02:00:19.168Z,4.90
2018-09-24T02:02:55.103Z,4.93
2018-09-24T02:05:30.920Z,4.13
2018-09-24T02:08:06.902Z,4.60
2018-09-24T02:10:42.715Z,4.40
2018-09-24T02:13:18.547Z,4.37
2018-09-24T02:15:54.373Z,4.10
2018-09-24T02:18:30.347Z,4.60
2018-09-24T02:21:06.588Z,4.37
2018-09-24T02:23:42.570Z,4.80
2018-09-24T02:26:18.538Z,4.20
2018-09-24T02:28:54.556Z,5.03
2018-09-24T02:31:34.603Z,4.57
2018-09-24T02:34:11.611Z,4.63
2018-09-24T02:36:47.570Z,4.97
2018-09-24T02:39:23.540Z,4.73
2018-09-24T02:41:59.573Z,5.20
2018-09-24T02:44:35.680Z,5.10
2018-09-24T02:47:11.516Z,4.57
2018-09-24T02:49:47.291Z,5.20
2018-09-24T02:52:23.323Z,5.63
2018-09-24T02:54:59.358Z,5.57
2018-09-24T02:57:35.200Z,5.00
2018-09-24T03:00:11.314Z,4.87
2018-09-24T03:02:47.193Z,5.20
2018-09-24T03:05:23.079Z,4.73
2018-09-24T03:07:59.019Z,5.00
2018-09-24T03:10:35.072Z,4.90
2018-09-24T03:13:11.027Z,5.00
2018-09-24T03:15:46.944Z,4.33
2018-09-24T03:18:22.715Z,5.20
2018-09-24T03:20:58.626Z,4.97
2018-09-24T03:23:34.514Z,5.07
2018-09-24T03:26:10.490Z,4.53
2018-09-24T03:28:46.291Z,5.17
2018-09-24T03:31:22.076Z,5.17
2018-09-24T03:33:57.871Z,5.60
2018-09-24T03:36:33.865Z,5.73
2018-09-24T03:39:09.887Z,5.67
2018-09-24T03:41:46.151Z,5.30
2018-09-24T03:44:22.062Z,5.60
2018-09-24T03:46:57.896Z,5.57
2018-09-24T03:49:33.821Z,5.43
2018-09-24T03:52:09.818Z,5.50
2018-09-24T03:54:45.663Z,5.67
2018-09-24T03:57:21.656Z,5.53
2018-09-24T03:59:57.490Z,5.70
2018-09-24T04:02:33.669Z,5.57
2018-09-24T04:05:14.603Z,5.60
2018-09-24T04:07:55.821Z,5.43
2018-09-24T04:10:36.678Z,6.17
2018-09-24T04:13:17.837Z,5.73
2018-09-24T04:15:58.916Z,6.13
2018-09-24T04:18:40.076Z,6.73
2018-09-24T04:21:20.972Z,6.17
2018-09-24T04:24:02.065Z,6.00
2018-09-24T04:26:43.072Z,5.70
2018-09-24T04:29:23.973Z,6.60
2018-09-24T04:32:04.986Z,6.13
2018-09-24T04:34:45.859Z,5.83
2018-09-24T04:37:26.950Z,6.03
2018-09-24T04:40:08.092Z,5.23
2018-09-24T04:42:49.343Z,5.37
2018-09-24T04:45:30.247Z,5.67
2018-09-24T04:48:11.631Z,5.30
2018-09-24T04:50:52.650Z,5.97
2018-09-24T04:53:33.627Z,4.83
2018-09-24T04:56:14.796Z,5.20
2018-09-24T04:58:55.826Z,5.10
2018-09-24T05:01:37.156Z,5.30
2018-09-24T05:04:18.163Z,4.77
2018-09-24T05:06:59.443Z,5.17
2018-09-24T05:09:40.338Z,5.00
2018-09-24T05:12:21.428Z,5.17
2018-09-24T05:15:02.417Z,4.97
2018-09-24T05:17:43.558Z,5.07
2018-09-24T05:20:24.946Z,4.53
2018-09-24T05:23:05.880Z,4.43
2018-09-24T05:25:46.923Z,4.33
2018-09-24T05:28:27.870Z,4.43
2018-09-24T05:31:08.772Z,5.10
2018-09-24T05:33:49.832Z,4.80
2018-09-24T05:36:30.816Z,5.33
2018-09-24T05:39:14.641Z,6.07
2018-09-24T05:41:55.892Z,5.37
2018-09-24T05:44:36.805Z,4.83
2018-09-24T05:47:17.799Z,4.73
2018-09-24T05:49:58.747Z,4.87
2018-09-24T05:52:39.717Z,4.13
2018-09-24T05:55:20.886Z,3.80
2018-09-24T05:58:01.792Z,4.27
2018-09-24T06:00:42.764Z,4.60
2018-09-24T06:03:23.747Z,3.77
2018-09-24T06:06:04.587Z,4.40
2018-09-24T06:08:45.667Z,4.43
2018-09-24T06:11:26.714Z,4.47
2018-09-24T06:14:07.754Z,4.20
2018-09-24T06:16:48.775Z,4.30
2018-09-24T06:19:29.652Z,4.40
2018-09-24T06:22:10.425Z,3.97
2018-09-24T06:24:51.459Z,3.60
2018-09-24T06:27:32.571Z,4.30
2018-09-24T06:30:13.810Z,4.30
2018-09-24T06:32:54.678Z,3.20
2018-09-24T06:35:35.627Z,3.83
2018-09-24T06:38:16.652Z,4.07
2018-09-24T06:40:57.564Z,3.60
2018-09-24T06:43:38.554Z,3.17
2018-09-24T06:46:19.674Z,4.07
2018-09-24T06:49:00.663Z,3.43
2018-09-24T06:51:42.010Z,3.87
2018-09-24T06:54:22.872Z,3.50
2018-09-24T06:57:04.032Z,3.60
2018-09-24T06:59:44.903Z,3.30
2018-09-24T07:02:26.022Z,3.30
2018-09-24T07:05:06.874Z,3.30
2018-09-24T07:07:47.804Z,3.47
2018-09-24T07:10:28.744Z,3.47
2018-09-24T07:13:09.614Z,3.33
2018-09-24T07:15:50.657Z,3.53
2018-09-24T07:18:31.795Z,3.43
2018-09-24T07:21:12.931Z,3.43
2018-09-24T07:23:54.048Z,3.47
2018-09-24T07:26:35.224Z,4.03
2018-09-24T07:29:47.584Z,2.90
2018-09-24T07:32:28.792Z,3.27
2018-09-24T07:35:09.696Z,3.30
2018-09-24T07:37:50.809Z,3.03
2018-09-24T07:40:32.047Z,3.60
2018-09-24T07:43:13.065Z,3.47
2018-09-24T07:45:54.278Z,3.13
2018-09-24T07:48:35.412Z,3.07
2018-09-24T07:51:16.300Z,2.97
2018-09-24T07:53:57.521Z,2.83
2018-09-24T07:56:38.722Z,2.57
2018-09-24T07:59:19.925Z,2.97
2018-09-24T08:02:00.766Z,2.90
2018-09-24T08:04:41.562Z,2.70
2018-09-24T08:07:22.445Z,2.60
2018-09-24T08:10:03.741Z,2.60
2018-09-24T08:12:44.731Z,2.50
2018-09-24T08:15:25.935Z,2.33
2018-09-24T08:18:07.005Z,2.80
2018-09-24T08:20:48.294Z,2.60
2018-09-24T08:23:29.122Z,3.30
2018-09-24T08:26:10.026Z,2.87
2018-09-24T08:28:51.161Z,2.30
2018-09-24T08:31:32.343Z,2.73
2018-09-24T08:34:13.254Z,2.70
2018-09-24T08:36:54.156Z,3.03
2018-09-24T08:39:35.252Z,2.33
2018-09-24T08:42:16.218Z,2.83
2018-09-24T08:44:57.444Z,2.23
2018-09-24T08:47:38.492Z,1.97
2018-09-24T08:50:19.449Z,1.90
2018-09-24T08:53:00.276Z,1.90
2018-09-24T08:55:41.393Z,2.00
2018-09-24T08:58:22.673Z,1.70
2018-09-24T09:01:03.575Z,1.80
2018-09-24T09:03:44.557Z,1.80
2018-09-24T09:06:25.639Z,1.90
2018-09-24T09:09:06.579Z,2.10
2018-09-24T09:11:47.871Z,1.70
2018-09-24T09:14:28.823Z,2.40
2018-09-24T09:17:09.755Z,1.70
2018-09-24T09:19:50.611Z,1.40
2018-09-24T09:22:31.869Z,1.60
2018-09-24T09:25:13.005Z,1.63
2018-09-24T09:27:53.940Z,1.70
2018-09-24T09:30:35.126Z,1.30
2018-09-24T09:33:16.387Z,1.20
2018-09-24T09:35:57.268Z,1.20
2018-09-24T09:38:38.478Z,1.10
2018-09-24T09:41:19.512Z,1.60
2018-09-24T09:44:07.215Z,1.27
2018-09-24T09:46:48.288Z,1.20
2018-09-24T09:49:29.805Z,1.30
2018-09-24T09:52:10.832Z,0.93
2018-09-24T09:54:51.979Z,1.23
2018-09-24T09:57:33.147Z,0.93
2018-09-24T10:00:14.394Z,1.50
2018-09-24T10:02:55.527Z,1.83
2018-09-24T10:05:36.697Z,1.10
2018-09-24T10:08:17.567Z,1.10
2018-09-24T10:10:58.597Z,1.17
2018-09-24T10:13:39.805Z,1.17
2018-09-24T10:16:20.881Z,1.07
2018-09-24T10:19:02.005Z,0.70
2018-09-24T10:21:42.940Z,1.00
2018-09-24T10:24:24.165Z,1.10
2018-09-24T10:27:04.952Z,0.80
2018-09-24T10:29:46.130Z,0.90
2018-09-24T10:32:27.096Z,1.00
2018-09-24T10:35:08.050Z,0.70
2018-09-24T10:37:49.106Z,0.90
2018-09-24T10:40:30.325Z,0.90
2018-09-24T10:43:12.154Z,0.93
2018-09-24T10:45:53.177Z,1.10
2018-09-24T10:48:34.086Z,1.30
2018-09-24T10:51:15.351Z,0.93
2018-09-24T10:53:56.545Z,0.90
2018-09-24T10:56:37.830Z,0.90
2018-09-24T10:59:19.009Z,1.07
2018-09-24T11:02:00.214Z,1.00
2018-09-24T11:04:41.383Z,0.93
2018-09-24T11:07:22.376Z,1.00
2018-09-24T11:10:03.302Z,0.80
2018-09-24T11:12:44.103Z,1.10
2018-09-24T11:15:25.045Z,1.07
2018-09-24T11:18:06.065Z,0.97
2018-09-24T11:20:47.451Z,1.30
2018-09-24T11:23:28.494Z,1.20
2018-09-24T11:26:09.670Z,1.20
2018-09-24T11:28:50.849Z,1.53
2018-09-24T11:31:31.669Z,1.00
2018-09-24T11:34:12.754Z,1.10
2018-09-24T11:36:54.051Z,1.30
2018-09-24T11:39:35.293Z,1.00
2018-09-24T11:42:22.032Z,0.90
2018-09-24T11:45:03.094Z,0.93
2018-09-24T11:47:44.220Z,1.10
2018-09-24T11:50:25.439Z,1.30
2018-09-24T11:53:06.712Z,1.30
2018-09-24T11:55:47.626Z,1.03
2018-09-24T11:58:28.617Z,0.83
2018-09-24T12:01:09.736Z,1.10
2018-09-24T12:03:50.679Z,0.70
2018-09-24T12:06:31.558Z,0.77
2018-09-24T12:09:07.479Z,0.73
2018-09-24T12:11:43.452Z,0.87
2018-09-24T12:14:19.366Z,1.00
2018-09-24T12:16:55.134Z,0.97
2018-09-24T12:19:30.748Z,1.00
2018-09-24T12:22:06.569Z,0.93
2018-09-24T12:24:42.516Z,0.73
2018-09-24T12:27:18.381Z,0.60
2018-09-24T12:29:54.234Z,1.00
2018-09-24T12:32:29.989Z,1.10
2018-09-24T12:35:05.889Z,0.80
2018-09-24T12:37:41.713Z,0.90
2018-09-24T12:40:17.725Z,0.60
2018-09-24T12:42:53.425Z,1.10
2018-09-24T12:45:29.305Z,0.77
2018-09-24T12:48:05.418Z,0.70
2018-09-24T12:50:41.352Z,0.70
2018-09-24T12:53:17.186Z,0.80
2018-09-24T12:55:53.065Z,0.80
2018-09-24T12:58:28.686Z,0.60
2018-09-24T13:01:04.554Z,1.10
2018-09-24T13:03:40.519Z,0.70
2018-09-24T13:06:16.592Z,0.53
2018-09-24T13:08:52.186Z,0.63
2018-09-24T13:11:28.134Z,0.50
2018-09-24T13:14:04.056Z,0.80
2018-09-24T13:16:39.944Z,0.70
2018-09-24T13:19:15.863Z,0.70
2018-09-24T13:21:51.715Z,1.17
2018-09-24T13:24:27.609Z,0.90
2018-09-24T13:27:03.577Z,1.10
2018-09-24T13:29:39.368Z,0.90
2018-09-24T13:32:15.233Z,0.97
2018-09-24T13:34:51.091Z,1.00
2018-09-24T13:37:26.722Z,0.90
2018-09-24T13:40:02.595Z,0.83
2018-09-24T13:42:38.443Z,0.90
2018-09-24T13:45:14.282Z,1.17
2018-09-24T13:47:50.192Z,1.03
2018-09-24T13:50:26.089Z,0.80
2018-09-24T13:53:02.007Z,0.87
2018-09-24T13:55:37.803Z,1.03
2018-09-24T13:58:14.262Z,1.20
2018-09-24T14:00:50.239Z,1.33
2018-09-24T14:03:25.994Z,1.17
2018-09-24T14:06:01.794Z,1.00
2018-09-24T14:08:37.644Z,1.00
2018-09-24T14:11:13.451Z,1.37
2018-09-24T14:13:49.440Z,1.10
2018-09-24T14:16:25.186Z,1.20
2018-09-24T14:19:00.881Z,1.17
2018-09-24T14:21:36.868Z,0.90
2018-09-24T14:24:12.544Z,1.10
2018-09-24T14:26:48.409Z,1.10
2018-09-24T14:29:24.335Z,1.00
2018-09-24T14:32:00.054Z,1.10
2018-09-24T14:34:36.019Z,0.97
2018-09-24T14:37:11.908Z,0.90
2018-09-24T14:39:47.903Z,1.00
2018-09-24T14:42:23.769Z,1.10
2018-09-24T14:44:59.632Z,1.00
2018-09-24T14:47:35.427Z,1.30
2018-09-24T14:50:11.907Z,1.30
2018-09-24T14:52:47.599Z,1.20
2018-09-24T14:55:23.396Z,1.10
2018-09-24T14:57:59.440Z,1.10
2018-09-24T15:00:35.196Z,1.20
2018-09-24T15:03:11.326Z,1.10
2018-09-24T15:05:47.335Z,1.03
2018-09-24T15:08:23.152Z,1.23
2018-09-24T15:10:59.094Z,1.27
2018-09-24T15:13:34.878Z,1.40
2018-09-24T15:16:11.048Z,1.30
2018-09-24T15:18:46.931Z,1.10
2018-09-24T15:21:23.093Z,1.30
2018-09-24T15:23:59.221Z,0.90
2018-09-24T15:26:35.712Z,1.10
2018-09-24T15:29:11.911Z,1.37
2018-09-24T15:31:47.892Z,1.20
2018-09-24T15:34:24.173Z,1.00
2018-09-24T15:37:00.395Z,0.90
2018-09-24T15:39:36.499Z,1.00
2018-09-24T15:42:12.383Z,1.13
2018-09-24T15:44:48.369Z,0.90
2018-09-24T15:47:24.272Z,1.00
2018-09-24T15:50:00.186Z,0.90
2018-09-24T15:52:36.189Z,1.00
2018-09-24T15:55:12.362Z,1.00
2018-09-24T15:57:48.265Z,1.10
2018-09-24T16:00:24.470Z,1.03
2018-09-24T16:03:00.482Z,1.30
2018-09-24T16:05:36.429Z,1.30
2018-09-24T16:08:12.655Z,1.40
2018-09-24T16:10:48.573Z,1.20
2018-09-24T16:13:24.695Z,1.20
2018-09-24T16:16:00.563Z,1.30
2018-09-24T16:18:36.561Z,1.50
2018-09-24T16:21:12.780Z,1.40
2018-09-24T16:23:48.863Z,1.10
2018-09-24T16:26:24.978Z,1.27
2018-09-24T16:29:01.422Z,1.20
2018-09-24T16:31:37.279Z,1.10
2018-09-24T16:34:13.062Z,1.10
2018-09-24T16:36:49.027Z,1.33
2018-09-24T16:39:24.748Z,1.30
2018-09-24T16:42:00.612Z,0.97
2018-09-24T16:44:36.371Z,1.23
2018-09-24T16:47:12.463Z,1.07
2018-09-24T16:49:48.365Z,1.07
2018-09-24T16:52:24.230Z,1.10
2018-09-24T16:55:00.197Z,1.00
2018-09-24T16:57:36.023Z,1.03
2018-09-24T17:00:12.137Z,1.83
2018-09-24T17:02:48.011Z,1.57
2018-09-24T17:05:23.901Z,1.37
2018-09-24T17:07:59.670Z,1.43
2018-09-24T17:10:35.391Z,1.40
2018-09-24T17:13:11.246Z,1.67
2018-09-24T17:15:47.166Z,1.30
2018-09-24T17:18:23.078Z,1.20
2018-09-24T17:20:58.979Z,1.20
2018-09-24T17:23:34.845Z,1.07
2018-09-24T17:26:10.787Z,1.30
2018-09-24T17:28:46.782Z,0.93
2018-09-24T17:31:22.713Z,1.07
2018-09-24T17:33:58.537Z,1.30
2018-09-24T17:36:34.332Z,1.30
2018-09-24T17:39:13.108Z,0.90
2018-09-24T17:41:49.004Z,1.00
2018-09-24T17:44:24.945Z,1.23
2018-09-24T17:47:00.720Z,1.23
2018-09-24T17:49:36.547Z,1.50
2018-09-24T17:52:12.249Z,1.33
2018-09-24T17:54:48.252Z,1.00
2018-09-24T17:57:24.059Z,1.13
2018-09-24T18:00:00.033Z,1.60
2018-09-24T18:02:35.804Z,1.53
2018-09-24T18:05:12.044Z,1.17
2018-09-24T18:07:47.872Z,1.43
2018-09-24T18:10:23.650Z,1.07
2018-09-24T18:12:59.422Z,1.27
2018-09-24T18:15:35.425Z,1.20
2018-09-24T18:18:11.026Z,1.30
2018-09-24T18:20:47.033Z,1.60
2018-09-24T18:23:22.969Z,1.23
2018-09-24T18:25:58.785Z,1.30
2018-09-24T18:28:34.372Z,1.37
2018-09-24T18:31:10.306Z,1.17
2018-09-24T18:33:46.094Z,1.30
2018-09-24T18:36:28.670Z,0.93
2018-09-24T18:39:04.436Z,1.87
2018-09-24T18:41:40.368Z,1.40
2018-09-24T18:44:16.327Z,1.63
2018-09-24T18:46:52.183Z,2.13
2018-09-24T18:49:27.992Z,1.80
2018-09-24T18:52:03.981Z,1.80
2018-09-24T18:54:39.661Z,2.00
2018-09-24T18:57:15.639Z,1.40
2018-09-24T18:59:51.430Z,1.77
2018-09-24T19:02:27.296Z,2.07
2018-09-24T19:05:03.113Z,1.60
2018-09-24T19:07:39.070Z,1.40
2018-09-24T19:10:14.954Z,1.33
2018-09-24T19:12:50.814Z,1.70
2018-09-24T19:15:26.545Z,1.60
2018-09-24T19:18:02.319Z,1.40
2018-09-24T19:20:38.042Z,1.60
2018-09-24T19:23:13.813Z,1.20
2018-09-24T19:25:49.672Z,1.57
2018-09-24T19:28:25.448Z,1.23
2018-09-24T19:31:01.378Z,1.73
2018-09-24T19:33:37.097Z,2.90
2018-09-24T19:36:12.851Z,1.60
2018-09-24T19:38:48.746Z,1.83
2018-09-24T19:41:24.696Z,1.50
2018-09-24T19:44:00.470Z,1.30
2018-09-24T19:46:36.328Z,1.40
2018-09-24T19:49:12.190Z,1.20
2018-09-24T19:51:47.979Z,1.87
2018-09-24T19:54:23.867Z,1.60
2018-09-24T19:56:59.819Z,1.60
2018-09-24T19:59:35.612Z,2.00
2018-09-24T20:02:11.451Z,1.80
2018-09-24T20:04:47.233Z,1.90
2018-09-24T20:07:23.147Z,2.00
2018-09-24T20:09:58.923Z,2.60
2018-09-24T20:12:35.054Z,2.17
2018-09-24T20:15:11.629Z,2.03
2018-09-24T20:17:47.561Z,2.30
2018-09-24T20:20:23.498Z,2.80
2018-09-24T20:22:59.289Z,2.60
2018-09-24T20:25:35.289Z,2.13
2018-09-24T20:28:11.197Z,2.20
2018-09-24T20:30:47.095Z,3.20
2018-09-24T20:33:22.968Z,2.87
2018-09-24T20:35:58.786Z,2.10
2018-09-24T20:38:34.682Z,2.00
2018-09-24T20:41:10.641Z,2.17
2018-09-24T20:43:46.447Z,1.90
2018-09-24T20:46:22.263Z,2.00
2018-09-24T20:48:58.154Z,1.67
2018-09-24T20:51:34.159Z,2.07
2018-09-24T20:54:09.930Z,1.73
2018-09-24T20:56:45.739Z,2.10
2018-09-24T20:59:21.512Z,1.97
2018-09-24T21:01:57.259Z,1.77
2018-09-24T21:04:33.091Z,1.80
2018-09-24T21:07:08.997Z,1.90
2018-09-24T21:09:44.705Z,2.10
2018-09-24T21:12:21.204Z,2.13
2018-09-24T21:14:56.854Z,2.13
2018-09-24T21:17:32.831Z,2.00
2018-09-24T21:20:08.561Z,2.17
2018-09-24T21:22:44.418Z,2.20
2018-09-24T21:25:20.173Z,2.20
2018-09-24T21:27:56.073Z,2.17
2018-09-24T21:30:31.882Z,2.40
2018-09-24T21:33:07.818Z,2.20
2018-09-24T21:35:43.640Z,2.17
2018-09-24T21:38:19.588Z,2.07
2018-09-24T21:40:55.435Z,1.90
2018-09-24T21:43:31.305Z,1.93
2018-09-24T21:46:07.164Z,2.50
2018-09-24T21:48:42.963Z,2.33
2018-09-24T21:51:18.825Z,2.33
2018-09-24T21:53:54.724Z,2.07
2018-09-24T21:56:30.618Z,2.20
2018-09-24T21:59:06.384Z,2.20
2018-09-24T22:01:42.202Z,2.60
2018-09-24T22:04:17.924Z,2.30
2018-09-24T22:06:53.847Z,2.40
2018-09-24T22:09:29.576Z,2.40
2018-09-24T22:12:05.797Z,2.13
2018-09-24T22:14:41.703Z,2.20
2018-09-24T22:17:17.464Z,2.43
2018-09-24T22:19:53.308Z,2.00
2018-09-24T22:22:29.299Z,2.20
2018-09-24T22:25:05.091Z,2.33
2018-09-24T22:27:40.966Z,1.90
2018-09-24T22:30:16.975Z,1.87
2018-09-24T22:32:52.905Z,2.13
2018-09-24T22:35:28.700Z,2.10
2018-09-24T22:38:04.534Z,2.13
2018-09-24T22:40:40.248Z,2.10
2018-09-24T22:43:16.279Z,2.00
2018-09-24T22:45:51.989Z,2.00
2018-09-24T22:48:27.771Z,2.40
2018-09-24T22:51:03.661Z,2.30
2018-09-24T22:53:39.627Z,1.73
2018-09-24T22:56:15.395Z,1.90
2018-09-24T22:58:51.374Z,1.93
2018-09-24T23:01:27.226Z,2.10
2018-09-24T23:04:02.888Z,2.27
2018-09-24T23:06:38.857Z,2.10
2018-09-24T23:09:15.350Z,1.83
2018-09-24T23:11:51.037Z,1.87
2018-09-24T23:14:26.919Z,2.07
2018-09-24T23:17:02.793Z,2.47
2018-09-24T23:19:38.564Z,1.93
2018-09-24T23:22:14.375Z,2.13
2018-09-24T23:24:50.360Z,2.10
2018-09-24T23:27:26.138Z,2.33
2018-09-24T23:30:01.969Z,2.70
2018-09-24T23:32:37.602Z,2.33
2018-09-24T23:35:13.398Z,2.07
2018-09-24T23:37:49.083Z,2.20
2018-09-24T23:40:25.120Z,3.33
2018-09-24T23:43:00.776Z,2.50
2018-09-24T23:45:36.695Z,2.47
2018-09-24T23:48:12.587Z,2.37
2018-09-24T23:50:48.475Z,2.20
2018-09-24T23:53:24.340Z,2.27
2018-09-24T23:56:00.111Z,2.00
2018-09-24T23:58:36.169Z,2.20
